Time;durP1;ratioP1;P1;durP2;ratioP2;P2;SDS_P1;SDS_P2;PMS_P1;PMS_P2;Temp;Humidity;BMP_temperature;BMP_pressure;BME280_temperature;BME280_humidity;BME280_pressure;Samples;Min_cycle;Max_cycle;Signal;HPM_P1;HPM_P2
2023/07/12 00:02:23;;;;;;;1.65;1.00;;;;;;;;;;20802040;23;20234;-67
2023/07/12 00:12:25;;;;;;;2.58;1.23;;;;;;;;;;20791283;28;20229;-67
2023/07/12 00:22:27;;;;;;;1.40;1.00;;;;;;;;;;20820677;28;20584;-68
2023/07/12 00:32:29;;;;;;;1.98;1.05;;;;;;;;;;20852653;28;20319;-67
2023/07/12 00:42:37;;;;;;;1.08;0.70;;;;;;;;;;20834190;28;20213;-67
2023/07/12 00:52:40;;;;;;;2.38;1.00;;;;;;;;;;20792898;28;20229;-67
2023/07/12 01:02:45;;;;;;;2.38;0.90;;;26.90;99.90;;;;;;20794005;28;20226;-67
2023/07/12 01:12:48;;;;;;;2.47;0.80;;;26.90;99.90;;;;;;20776585;28;20299;-68
2023/07/12 01:22:55;;;;;;;1.38;0.88;;;;;;;;;;20785300;28;20230;-67
2023/07/12 01:32:57;;;;;;;0.95;0.70;;;;;;;;;;20824639;28;20222;-67
2023/07/12 01:42:58;;;;;;;1.50;1.00;;;;;;;;;;20819871;28;20266;-68
2023/07/12 01:53:00;;;;;;;2.38;0.95;;;;;;;;;;20817209;28;20288;-68
2023/07/12 02:03:02;;;;;;;1.83;1.00;;;;;;;;;;20809770;28;20586;-68
2023/07/12 02:13:04;;;;;;;2.38;1.30;;;;;;;;;;20833246;28;20232;-68
2023/07/12 02:23:07;;;;;;;1.67;1.05;;;;;;;;;;20791681;28;20221;-68
2023/07/12 02:33:10;;;;;;;1.63;0.95;;;;;;;;;;20799972;28;20223;-68
2023/07/12 02:43:11;;;;;;;1.33;0.90;;;;;;;;;;20816077;28;20256;-68
2023/07/12 02:53:17;;;;;;;2.80;1.15;;;;;;;;;;20831982;28;20292;-68
2023/07/12 03:03:19;;;;;;;2.03;0.80;;;;;;;;;;20779062;28;20299;-68
2023/07/12 03:13:21;;;;;;;1.75;0.80;;;;;;;;;;20804842;28;20283;-68
2023/07/12 03:23:23;;;;;;;1.65;0.80;;;;;;;;;;20784894;28;20226;-70
2023/07/12 03:33:24;;;;;;;1.90;0.98;;;;;;;;;;20796560;28;20276;-69
2023/07/12 03:43:27;;;;;;;2.65;1.02;;;;;;;;;;20777509;28;20224;-68
2023/07/12 03:53:29;;;;;;;2.38;1.00;;;;;;;;;;20845148;28;20715;-68
2023/07/12 04:03:31;;;;;;;7.05;1.35;;;25.60;99.90;;;;;;20809166;28;20283;-68
2023/07/12 04:13:33;;;;;;;1.95;0.88;;;;;;;;;;20821723;28;20595;-69
2023/07/12 04:23:36;;;;;;;2.08;0.95;;;;;;;;;;20771955;28;20220;-68
2023/07/12 04:33:38;;;;;;;3.30;1.10;;;;;;;;;;20796440;28;20374;-69
2023/07/12 04:43:40;;;;;;;1.30;0.85;;;;;;;;;;20813365;28;20286;-68
2023/07/12 04:53:47;;;;;;;3.17;1.20;;;;;;;;;;20798214;28;20286;-68
2023/07/12 05:03:49;;;;;;;1.63;0.95;;;;;;;;;;20794804;28;20612;-68
2023/07/12 05:13:51;;;;;;;1.45;0.80;;;;;;;;;;20790297;28;20227;-68
2023/07/12 05:23:53;;;;;;;2.85;1.00;;;;;;;;;;20766439;28;22094;-68
2023/07/12 05:33:55;;;;;;;2.28;1.05;;;;;;;;;;20789673;28;20254;-68
2023/07/12 05:43:57;;;;;;;2.35;1.00;;;;;;;;;;20788096;28;20225;-68
2023/07/12 05:53:59;;;;;;;1.88;1.02;;;;;;;;;;20761831;28;20223;-68
2023/07/12 06:04:01;;;;;;;3.35;1.25;;;;;;;;;;20865949;22;20272;-71
2023/07/12 06:14:02;;;;;;;2.38;1.10;;;;;;;;;;20973646;28;20228;-71
2023/07/12 06:24:06;;;;;;;2.55;1.23;;;25.70;99.90;;;;;;20962933;28;20220;-70
2023/07/12 06:34:08;;;;;;;1.75;1.00;;;;;;;;;;20928574;28;20342;-75
2023/07/12 06:44:10;;;;;;;2.80;1.20;;;;;;;;;;20963567;28;20212;-74
2023/07/12 06:54:15;;;;;;;1.80;1.15;;;26.50;99.90;;;;;;20964907;28;20224;-76
2023/07/12 07:04:17;;;;;;;1.73;1.30;;;;;;;;;;20941277;28;20281;-76
2023/07/12 07:14:19;;;;;;;3.25;1.30;;;;;;;;;;20967460;28;20223;-76
2023/07/12 07:24:21;;;;;;;1.65;1.10;;;;;;;;;;20926848;28;20922;-76
2023/07/12 07:34:22;;;;;;;2.08;1.40;;;;;;;;;;20952501;28;20223;-74
2023/07/12 07:44:24;;;;;;;1.40;0.98;;;;;;;;;;20933541;28;20223;-76
2023/07/12 07:54:26;;;;;;;3.15;1.08;;;;;;;;;;20984366;28;20817;-75
2023/07/12 08:04:28;;;;;;;1.48;0.80;;;;;;;;;;20941011;28;20233;-74
2023/07/12 08:14:29;;;;;;;1.67;0.85;;;;;;;;;;20860674;28;20215;-74
2023/07/12 08:24:34;;;;;;;1.60;1.00;;;;;;;;;;20903121;28;20209;-75
2023/07/12 08:34:36;;;;;;;2.38;1.15;;;;;;;;;;20904069;28;20229;-75
2023/07/12 08:44:38;;;;;;;2.00;0.90;;;;;;;;;;20882142;28;20581;-73
2023/07/12 08:54:40;;;;;;;1.67;0.90;;;;;;;;;;20897013;28;20215;-73
2023/07/12 09:04:42;;;;;;;1.48;0.98;;;;;;;;;;20933286;28;20563;-76
2023/07/12 09:14:43;;;;;;;3.78;1.15;;;;;;;;;;20945423;28;20220;-76
2023/07/12 09:24:51;;;;;;;3.05;1.13;;;28.40;99.90;;;;;;20977881;28;20216;-76
2023/07/12 09:34:54;;;;;;;1.40;1.00;;;;;;;;;;20962136;28;20223;-75
2023/07/12 09:44:57;;;;;;;1.65;0.98;;;;;;;;;;20977835;28;20698;-75
2023/07/12 09:55:03;;;;;;;2.53;0.90;;;;;;;;;;20980623;28;20274;-73
2023/07/12 10:05:09;;;;;;;1.27;0.90;;;;;;;;;;20974636;28;20610;-73
2023/07/12 10:15:13;;;;;;;1.33;0.90;;;;;;;;;;20953305;28;20748;-71
2023/07/12 10:25:15;;;;;;;1.15;0.75;;;;;;;;;;20955508;28;20242;-77
2023/07/12 10:35:19;;;;;;;1.95;0.95;;;;;;;;;;20979950;28;20223;-73
2023/07/12 10:45:29;;;;;;;1.30;0.70;;;29.30;99.90;;;;;;20979813;28;20277;-73
2023/07/12 10:55:37;;;;;;;1.20;0.70;;;;;;;;;;20962696;28;20278;-74
2023/07/12 11:05:44;;;;;;;2.45;0.80;;;29.90;98.70;;;;;;20960591;28;20324;-74
2023/07/12 11:15:57;;;;;;;1.48;0.50;;;30.00;97.90;;;;;;20947361;28;20220;-74
2023/07/12 11:26:03;;;;;;;1.33;0.50;;;;;;;;;;20940128;28;20220;-74
2023/07/12 11:36:08;;;;;;;1.30;0.60;;;;;;;;;;20985824;28;20629;-75
2023/07/12 11:46:17;;;;;;;1.05;0.60;;;;;;;;;;20986178;28;20636;-73
2023/07/12 11:56:19;;;;;;;0.68;0.45;;;;;;;;;;20954705;28;20220;-74
2023/07/12 12:06:21;;;;;;;1.30;0.70;;;;;;;;;;20878826;28;20866;-73
2023/07/12 12:16:27;;;;;;;3.20;0.63;;;30.30;94.40;;;;;;20888358;28;20260;-75
2023/07/12 12:26:34;;;;;;;0.38;0.30;;;30.50;92.60;;;;;;20887676;28;20209;-76
2023/07/12 12:36:36;;;;;;;0.68;0.30;;;;;;;;;;20904187;28;20221;-74
2023/07/12 12:46:38;;;;;;;1.40;0.55;;;;;;;;;;20903133;28;20260;-75
2023/07/12 12:56:40;;;;;;;1.88;0.43;;;;;;;;;;20937893;22;20699;-73
2023/07/12 13:06:43;;;;;;;0.73;0.40;;;;;;;;;;20912644;28;20236;-72
2023/07/12 13:16:45;;;;;;;3.78;0.60;;;;;;;;;;20952878;28;20263;-72
2023/07/12 13:26:47;;;;;;;0.88;0.50;;;;;;;;;;20934416;28;20767;-72
2023/07/12 13:36:49;;;;;;;0.90;0.35;;;;;;;;;;20948013;28;20251;-72
2023/07/12 13:46:52;;;;;;;1.42;0.50;;;;;;;;;;20959712;28;20237;-72
2023/07/12 13:56:54;;;;;;;1.38;0.50;;;;;;;;;;20931865;28;20850;-72
2023/07/12 14:06:57;;;;;;;1.50;0.43;;;;;;;;;;20898273;28;20705;-72
2023/07/12 14:16:58;;;;;;;1.20;0.50;;;;;;;;;;20923640;28;20305;-73
2023/07/12 14:27:00;;;;;;;0.80;0.45;;;;;;;;;;20929270;28;20220;-72
2023/07/12 14:37:02;;;;;;;0.98;0.40;;;;;;;;;;20945610;28;20771;-73
2023/07/12 14:47:09;;;;;;;0.57;0.30;;;;;;;;;;20958464;28;20880;-72
2023/07/12 14:57:14;;;;;;;0.70;0.32;;;;;;;;;;20891142;28;20578;-73
2023/07/12 15:07:37;;;;;;;0.75;0.30;;;30.30;89.30;;;;;;20926674;28;20205;-73
2023/07/12 15:17:39;;;;;;;1.98;0.38;;;30.20;86.20;;;;;;20893967;28;20275;-73
2023/07/12 15:27:41;;;;;;;1.13;0.30;;;;;;;;;;20879320;28;20225;-73
2023/07/12 15:37:43;;;;;;;0.50;0.30;;;;;;;;;;20925672;28;20287;-72
2023/07/12 15:47:45;;;;;;;0.65;0.40;;;;;;;;;;20939136;28;20220;-73
2023/07/12 15:57:47;;;;;;;0.30;0.22;;;;;;;;;;20938283;28;20227;-73
2023/07/12 16:07:49;;;;;;;1.08;0.57;;;;;;;;;;20917704;28;20289;-73
2023/07/12 16:17:50;;;;;;;2.58;0.55;;;;;;;;;;20908709;28;20219;-73
2023/07/12 16:27:52;;;;;;;0.52;0.40;;;;;;;;;;20936380;28;20232;-73
2023/07/12 16:37:54;;;;;;;0.95;0.30;;;;;;;;;;20909315;28;20755;-73
2023/07/12 16:47:56;;;;;;;0.60;0.32;;;;;;;;;;20910615;28;20254;-73
2023/07/12 16:57:58;;;;;;;0.75;0.40;;;;;;;;;;20943668;28;20699;-73
2023/07/12 17:07:59;;;;;;;0.55;0.40;;;;;;;;;;20913811;28;20223;-71
2023/07/12 17:18:02;;;;;;;1.25;0.60;;;;;;;;;;20946940;28;20213;-71
2023/07/12 17:28:09;;;;;;;2.13;0.47;;;;;;;;;;20938630;28;20784;-71
2023/07/12 17:38:13;;;;;;;0.50;0.22;;;;;;;;;;20933479;28;20228;-73
2023/07/12 17:48:17;;;;;;;1.35;0.50;;;;;;;;;;20940286;28;20267;-72
2023/07/12 17:58:19;;;;;;;0.70;0.40;;;;;;;;;;20916730;28;20740;-72
2023/07/12 18:08:21;;;;;;;0.77;0.40;;;;;;;;;;20958116;28;20271;-72
2023/07/12 18:18:23;;;;;;;3.28;0.50;;;;;;;;;;20943806;28;20212;-72
2023/07/12 18:28:25;;;;;;;0.90;0.52;;;;;;;;;;20904423;22;20285;-82
2023/07/12 18:38:27;;;;;;;1.67;0.50;;;;;;;;;;20901983;28;20221;-81
2023/07/12 18:48:29;;;;;;;0.85;0.50;;;;;;;;;;20893157;28;20306;-81
2023/07/12 18:58:31;;;;;;;0.57;0.30;;;;;;;;;;20887314;28;20245;-82
2023/07/12 19:08:33;;;;;;;0.80;0.40;;;;;;;;;;20953702;28;20759;-80
2023/07/12 19:18:35;;;;;;;0.40;0.30;;;;;;;;;;20944826;28;20289;-82
2023/07/12 19:28:56;;;;;;;1.73;0.52;;;;;;;;;;20922117;28;20769;-83
2023/07/12 19:39:25;;;;;;;0.63;0.40;;;;;;;;;;20971089;28;20307;-81
2023/07/12 19:49:28;;;;;;;0.65;0.40;;;;;;;;;;20966133;28;20236;-81
2023/07/12 19:59:30;;;;;;;4.40;0.50;;;;;;;;;;20950383;28;20284;-80
2023/07/12 20:09:33;;;;;;;1.33;0.50;;;;;;;;;;20915990;28;20270;-83
2023/07/12 20:19:35;;;;;;;0.60;0.38;;;;;;;;;;20975498;28;20223;-83
2023/07/12 20:29:37;;;;;;;0.65;0.40;;;;;;;;;;20975071;28;20258;-81
2023/07/12 20:39:39;;;;;;;0.52;0.20;;;;;;;;;;20959086;28;20226;-82
2023/07/12 20:49:47;;;;;;;0.57;0.30;;;;;;;;;;20946148;28;20219;-84
2023/07/12 20:59:48;;;;;;;3.50;0.40;;;;;;;;;;20941147;28;20223;-84
2023/07/12 21:09:51;;;;;;;0.60;0.30;;;;;;;;;;20964926;28;20235;-84
2023/07/12 21:19:54;;;;;;;0.70;0.40;;;;;;;;;;20945822;28;20627;-83
2023/07/12 21:29:56;;;;;;;1.02;0.40;;;;;;;;;;20927087;28;20236;-83
2023/07/12 21:39:58;;;;;;;1.08;0.38;;;;;;;;;;20938842;28;20262;-84
2023/07/12 21:50:00;;;;;;;1.08;0.30;;;;;;;;;;20944416;28;20654;-84
2023/07/12 22:00:02;;;;;;;2.10;0.30;;;;;;;;;;20924409;28;20224;-83
2023/07/12 22:10:14;;;;;;;1.27;0.35;;;26.90;94.00;;;;;;20939672;28;20254;-85
2023/07/12 22:20:18;;;;;;;2.13;0.50;;;26.80;91.60;;;;;;20917001;28;20250;-83
2023/07/12 22:30:25;;;;;;;2.45;0.52;;;;;;;;;;20955643;28;20224;-82
2023/07/12 22:40:28;;;;;;;0.88;0.30;;;;;;;;;;20862451;28;20643;-83
2023/07/12 22:50:30;;;;;;;1.02;0.35;;;;;;;;;;20942417;28;20217;-81
2023/07/12 23:00:32;;;;;;;2.35;0.30;;;;;;;;;;20897348;28;20250;-83
2023/07/12 23:10:37;;;;;;;0.40;0.30;;;;;;;;;;20883547;28;20228;-83
2023/07/12 23:20:39;;;;;;;3.17;0.55;;;;;;;;;;20878077;28;20583;-81
2023/07/12 23:30:41;;;;;;;0.25;0.25;;;;;;;;;;20880211;28;20798;-83
2023/07/12 23:40:43;;;;;;;1.73;0.40;;;;;;;;;;20961471;28;20582;-82
2023/07/12 23:50:45;;;;;;;0.40;0.30;;;25.70;90.20;;;;;;20951331;28;20642;-82
